createdAt,value
2019-05-10T00:01:31.330Z,9.00
2019-05-10T00:04:39.405Z,9.10
2019-05-10T00:07:46.585Z,9.10
2019-05-10T00:10:35.573Z,9.10
2019-05-10T00:13:26.908Z,9.00
2019-05-10T00:16:17.348Z,8.90
2019-05-10T00:19:07.247Z,8.90
2019-05-10T00:21:58.141Z,8.90
2019-05-10T00:25:02.397Z,8.80
2019-05-10T00:27:39.427Z,8.80
2019-05-10T00:30:30.385Z,8.70
2019-05-10T00:33:20.085Z,8.70
2019-05-10T00:36:09.645Z,8.80
2019-05-10T00:38:59.301Z,8.70
2019-05-10T00:41:49.685Z,8.70
2019-05-10T00:44:39.770Z,8.70
2019-05-10T00:47:30.930Z,8.70
2019-05-10T00:50:21.176Z,8.70
2019-05-10T00:53:11.725Z,8.60
2019-05-10T00:56:01.970Z,8.60
2019-05-10T00:58:51.891Z,8.50
2019-05-10T01:01:41.842Z,8.50
2019-05-10T01:04:32.695Z,8.40
2019-05-10T01:07:22.398Z,8.40
2019-05-10T01:10:12.925Z,8.30
2019-05-10T01:13:03.421Z,8.30
2019-05-10T01:15:53.425Z,8.30
2019-05-10T01:18:43.367Z,8.30
2019-05-10T01:21:33.287Z,8.20
2019-05-10T01:24:24.050Z,8.10
2019-05-10T01:27:34.133Z,8.10
2019-05-10T01:30:24.057Z,8.10
2019-05-10T01:33:14.050Z,8.00
2019-05-10T01:36:04.210Z,8.00
2019-05-10T01:38:54.201Z,8.00
2019-05-10T01:41:44.050Z,8.00
2019-05-10T01:44:34.606Z,8.00
2019-05-10T01:47:24.633Z,8.00
2019-05-10T01:50:14.670Z,8.00
2019-05-10T01:53:04.372Z,7.90
2019-05-10T03:42:55.865Z,9.70
2019-05-10T03:45:45.995Z,9.70
2019-05-10T03:48:35.419Z,9.80
2019-05-10T03:51:25.184Z,9.90
2019-05-10T03:54:15.748Z,9.90
2019-05-10T03:57:14.488Z,10.00
2019-05-10T03:59:55.996Z,10.10
2019-05-10T04:02:45.669Z,10.10
2019-05-10T04:05:35.786Z,10.20
2019-05-10T04:08:25.810Z,10.30
2019-05-10T04:11:15.387Z,10.50
2019-05-10T04:14:05.505Z,10.50
2019-05-10T04:16:55.329Z,10.60
2019-05-10T04:19:45.661Z,10.70
2019-05-10T04:22:36.875Z,10.80
2019-05-10T04:25:26.586Z,10.90
2019-05-10T04:28:16.399Z,10.90
2019-05-10T04:31:07.205Z,11.00
2019-05-10T04:33:57.330Z,11.00
2019-05-10T04:36:47.257Z,11.10
2019-05-10T04:39:36.890Z,11.30
2019-05-10T04:42:26.769Z,11.40
2019-05-10T04:45:16.586Z,11.70
2019-05-10T04:48:08.205Z,11.90
2019-05-10T04:50:58.169Z,12.20
2019-05-10T04:53:47.866Z,12.40
2019-05-10T04:56:37.408Z,12.60
2019-05-10T04:59:27.437Z,12.80
2019-05-10T05:02:22.098Z,13.00
2019-05-10T05:05:09.504Z,13.10
2019-05-10T05:07:59.161Z,13.30
2019-05-10T05:10:49.029Z,13.40
2019-05-10T05:13:38.829Z,13.50
2019-05-10T05:16:28.971Z,13.60
2019-05-10T05:19:19.103Z,13.70
2019-05-10T05:22:08.868Z,13.70
2019-05-10T05:25:01.246Z,13.70
2019-05-10T05:28:05.312Z,13.70
2019-05-10T05:30:41.992Z,13.60
2019-05-10T05:33:31.425Z,13.50
2019-05-10T05:36:21.825Z,13.50
2019-05-10T05:39:11.499Z,13.50
2019-05-10T05:42:02.008Z,13.40
2019-05-10T05:44:52.224Z,13.40
2019-05-10T05:47:44.718Z,13.40
2019-05-10T05:50:33.291Z,13.50
2019-05-10T05:53:23.153Z,13.60
2019-05-10T05:56:14.480Z,13.80
2019-05-10T05:59:08.447Z,13.90
2019-05-10T06:02:00.907Z,14.10
2019-05-10T06:04:48.063Z,14.10
2019-05-10T06:07:39.398Z,14.10
2019-05-10T06:10:29.399Z,14.10
2019-05-10T06:13:23.599Z,14.00
2019-05-10T06:16:13.206Z,14.00
2019-05-10T06:19:02.785Z,13.90
2019-05-10T06:21:57.957Z,13.80
2019-05-10T06:24:46.598Z,13.70
2019-05-10T06:27:41.054Z,13.70
2019-05-10T06:30:27.411Z,13.80
2019-05-10T06:33:17.088Z,13.90
2019-05-10T06:36:08.169Z,14.10
2019-05-10T06:38:58.034Z,14.30
2019-05-10T06:41:50.105Z,14.50
2019-05-10T06:44:39.269Z,14.70
2019-05-10T06:47:28.889Z,14.90
2019-05-10T06:50:29.076Z,15.10
2019-05-10T06:53:11.221Z,15.20
2019-05-10T06:56:01.409Z,15.40
2019-05-10T06:58:51.245Z,15.50
2019-05-10T07:01:45.928Z,15.70
2019-05-10T07:04:36.031Z,15.80
2019-05-10T07:07:42.799Z,16.00
2019-05-10T07:10:18.748Z,16.10
2019-05-10T07:13:07.123Z,16.50
2019-05-10T07:15:56.864Z,16.70
2019-05-10T07:18:46.994Z,16.90
2019-05-10T07:21:39.001Z,17.20
2019-05-10T07:24:28.060Z,17.40
2019-05-10T07:27:18.004Z,17.40
2019-05-10T07:30:10.074Z,17.50
2019-05-10T07:33:02.118Z,17.50
2019-05-10T07:35:51.803Z,17.70
2019-05-10T07:38:42.305Z,17.80
2019-05-10T07:41:32.188Z,18.00
2019-05-10T07:44:22.143Z,18.00
2019-05-10T07:47:12.524Z,18.10
2019-05-10T07:50:03.849Z,18.00
2019-05-10T07:52:54.149Z,17.90
2019-05-10T07:55:44.154Z,17.80
2019-05-10T07:58:38.312Z,17.70
2019-05-10T08:01:32.189Z,17.50
2019-05-10T08:04:19.875Z,17.40
2019-05-10T08:07:10.411Z,17.40
2019-05-10T08:10:00.411Z,17.40
2019-05-10T08:12:51.264Z,17.60
2019-05-10T08:15:41.065Z,17.80
2019-05-10T08:18:30.688Z,18.10
2019-05-10T08:21:23.880Z,18.20
2019-05-10T08:24:14.388Z,18.10
2019-05-10T08:27:07.962Z,18.30
2019-05-10T08:30:17.980Z,18.40
2019-05-10T08:32:46.284Z,18.40
2019-05-10T08:35:38.765Z,18.50
2019-05-10T08:38:27.688Z,18.60
2019-05-10T08:41:18.424Z,18.80
2019-05-10T08:44:16.747Z,18.80
2019-05-10T08:46:59.393Z,19.00
2019-05-10T08:50:06.378Z,19.20
2019-05-10T08:52:42.388Z,19.70
2019-05-10T08:55:32.347Z,20.00
2019-05-10T09:01:32.900Z,20.30
2019-05-10T09:04:22.465Z,21.20
2019-05-10T09:07:12.064Z,23.00
2019-05-10T09:10:02.435Z,24.80
2019-05-10T09:12:58.005Z,25.50
2019-05-10T09:15:51.921Z,25.10
2019-05-10T09:18:38.184Z,24.40
2019-05-10T09:21:26.255Z,24.50
2019-05-10T09:24:16.061Z,24.40
2019-05-10T09:27:06.639Z,24.20
2019-05-10T09:29:56.189Z,23.90
2019-05-10T09:32:46.465Z,23.40
2019-05-10T09:35:38.967Z,23.00
2019-05-10T09:38:28.596Z,23.00
2019-05-10T09:41:18.604Z,22.50
2019-05-10T09:44:08.711Z,21.50
2019-05-10T09:46:58.760Z,21.30
2019-05-10T09:49:54.115Z,21.70
2019-05-10T09:52:39.425Z,22.30
2019-05-10T09:55:29.345Z,22.70
2019-05-10T09:58:22.278Z,23.40
2019-05-10T10:01:17.954Z,23.90
2019-05-10T10:04:02.392Z,24.50
2019-05-10T10:06:53.003Z,26.00
2019-05-10T10:09:47.532Z,27.60
2019-05-10T10:12:37.273Z,28.80
2019-05-10T10:15:33.618Z,30.00
2019-05-10T10:18:24.989Z,30.20
2019-05-10T10:21:13.142Z,29.40
2019-05-10T10:24:14.499Z,28.20
2019-05-10T10:26:56.032Z,27.90
2019-05-10T10:29:47.318Z,28.50
2019-05-10T10:32:37.580Z,29.30
2019-05-10T10:35:29.874Z,29.30
2019-05-10T10:38:20.389Z,28.30
2019-05-10T10:41:10.785Z,28.40
2019-05-10T10:44:00.709Z,29.40
2019-05-10T10:46:50.125Z,30.30
2019-05-10T10:49:40.014Z,31.00
2019-05-10T10:52:29.633Z,31.60
2019-05-10T10:55:19.765Z,31.70
2019-05-10T10:58:09.344Z,30.90
2019-05-10T11:00:59.905Z,30.50
2019-05-10T11:03:49.444Z,30.90
2019-05-10T11:06:39.105Z,31.60
2019-05-10T11:09:31.009Z,30.20
2019-05-10T11:12:23.987Z,28.70
2019-05-10T11:15:11.513Z,27.30
2019-05-10T11:18:02.310Z,28.00
2019-05-10T11:20:54.048Z,29.00
2019-05-10T11:23:43.742Z,29.20
2019-05-10T11:26:36.817Z,29.80
2019-05-10T11:29:27.885Z,30.40
2019-05-10T11:32:17.254Z,29.70
2019-05-10T11:35:28.389Z,29.20
2019-05-10T11:38:14.528Z,28.70
2019-05-10T11:41:02.073Z,29.00
2019-05-10T11:43:57.816Z,29.10
2019-05-10T11:46:44.589Z,30.00
2019-05-10T11:49:34.789Z,31.00
2019-05-10T11:52:29.112Z,31.30
2019-05-10T11:55:15.684Z,31.90
2019-05-10T11:58:09.012Z,33.00
2019-05-10T12:01:02.372Z,33.20
2019-05-10T12:03:49.504Z,33.10
2019-05-10T12:06:41.453Z,31.70
2019-05-10T12:09:31.832Z,30.90
2019-05-10T12:12:29.512Z,30.00
2019-05-10T12:15:14.241Z,30.50
2019-05-10T12:18:04.964Z,32.10
2019-05-10T12:21:08.621Z,32.90
2019-05-10T12:26:33.846Z,33.60
2019-05-10T12:29:31.667Z,34.70
2019-05-10T12:32:21.830Z,34.30
2019-05-10T12:35:11.797Z,34.20
2019-05-10T12:38:02.627Z,34.30
2019-05-10T12:40:53.503Z,34.80
2019-05-10T12:43:43.623Z,35.20
2019-05-10T12:46:33.669Z,35.20
2019-05-10T12:49:24.301Z,36.10
2019-05-10T12:52:16.170Z,36.50
2019-05-10T12:55:06.305Z,36.20
2019-05-10T12:57:56.624Z,36.10
2019-05-10T13:00:52.347Z,35.40
2019-05-10T13:03:37.871Z,33.30
2019-05-10T13:06:27.364Z,31.00
2019-05-10T13:09:16.995Z,29.30
2019-05-10T13:12:07.105Z,28.10
2019-05-10T13:14:57.589Z,27.70
2019-05-10T13:17:50.564Z,27.30
2019-05-10T13:20:38.782Z,27.50
2019-05-10T13:23:28.501Z,28.20
2019-05-10T13:26:18.325Z,29.10
2019-05-10T13:29:10.454Z,30.10
2019-05-10T13:31:59.205Z,30.90
2019-05-10T13:34:48.991Z,31.50
2019-05-10T13:37:38.715Z,30.40
2019-05-10T13:40:28.644Z,29.20
2019-05-10T13:43:26.608Z,28.00
2019-05-10T13:46:10.210Z,27.10
2019-05-10T13:49:00.545Z,26.20
2019-05-10T13:51:50.820Z,25.30
2019-05-10T13:54:40.706Z,24.70
2019-05-10T13:57:30.624Z,23.90
2019-05-10T14:00:20.649Z,23.40
2019-05-10T14:03:11.356Z,23.30
2019-05-10T14:06:01.665Z,23.90
2019-05-10T14:08:51.905Z,24.10
2019-05-10T14:11:46.644Z,24.60
2019-05-10T14:14:32.988Z,25.20
2019-05-10T14:17:23.374Z,25.30
2019-05-10T14:20:25.314Z,24.90
2019-05-10T14:23:04.564Z,24.90
2019-05-10T14:25:54.784Z,25.00
2019-05-10T14:28:47.242Z,25.20
2019-05-10T14:31:36.477Z,25.30
2019-05-10T14:34:26.109Z,25.70
2019-05-10T14:37:19.938Z,25.40
2019-05-10T14:40:07.575Z,25.00
2019-05-10T14:42:57.600Z,26.00
2019-05-10T14:45:47.904Z,26.40
2019-05-10T14:48:38.148Z,27.90
2019-05-10T14:51:40.739Z,29.60
2019-05-10T14:54:19.175Z,31.70
2019-05-10T14:57:08.945Z,33.50
2019-05-10T14:59:58.614Z,33.70
2019-05-10T15:02:47.849Z,34.10
2019-05-10T15:05:37.510Z,33.80
2019-05-10T15:08:27.440Z,33.60
2019-05-10T15:11:17.109Z,33.70
2019-05-10T15:14:07.303Z,33.60
2019-05-10T15:16:57.889Z,33.60
2019-05-10T15:19:55.952Z,33.50
2019-05-10T15:22:38.913Z,33.90
2019-05-10T15:25:29.024Z,34.10
2019-05-10T15:28:19.180Z,34.40
2019-05-10T15:31:09.685Z,34.40
2019-05-10T15:34:04.150Z,34.50
2019-05-10T15:36:51.264Z,34.80
2019-05-10T15:39:41.504Z,34.90
2019-05-10T15:42:36.082Z,34.80
2019-05-10T15:45:23.169Z,34.70
2019-05-10T15:48:13.009Z,34.30
2019-05-10T15:51:02.479Z,33.60
2019-05-10T15:53:52.135Z,33.30
2019-05-10T15:56:44.260Z,33.00
2019-05-10T15:59:33.610Z,33.10
2019-05-10T16:02:23.331Z,33.10
2019-05-10T16:05:23.852Z,33.10
2019-05-10T16:08:06.145Z,33.40
2019-05-10T16:10:56.211Z,33.50
2019-05-10T16:13:46.269Z,33.40
2019-05-10T16:16:37.445Z,33.20
2019-05-10T16:19:28.064Z,32.80
2019-05-10T16:22:18.930Z,32.60
2019-05-10T16:25:09.048Z,32.10
2019-05-10T16:27:59.110Z,31.50
2019-05-10T16:30:49.024Z,31.10
2019-05-10T16:33:39.024Z,30.70
2019-05-10T16:36:30.134Z,30.90
2019-05-10T16:39:20.571Z,31.40
2019-05-10T16:42:10.946Z,31.60
2019-05-10T16:45:00.869Z,31.20
2019-05-10T16:47:50.547Z,31.10
2019-05-10T16:50:40.108Z,30.70
2019-05-10T16:53:31.486Z,30.30
2019-05-10T16:56:21.398Z,30.20
2019-05-10T16:59:11.035Z,30.50
2019-05-10T17:02:04.635Z,30.50
2019-05-10T17:04:53.611Z,30.00
2019-05-10T17:07:43.441Z,29.50
2019-05-10T17:10:34.730Z,29.00
2019-05-10T17:13:24.864Z,28.60
2019-05-10T17:16:17.070Z,27.40
2019-05-10T17:19:05.984Z,25.70
2019-05-10T17:21:55.709Z,24.90
2019-05-10T17:24:45.200Z,23.50
2019-05-10T17:27:35.610Z,22.20
2019-05-10T17:30:27.979Z,21.50
2019-05-10T17:33:17.649Z,20.70
2019-05-10T17:36:08.830Z,20.00
2019-05-10T17:38:59.731Z,19.40
2019-05-10T17:41:49.401Z,19.00
2019-05-10T17:44:42.941Z,18.70
2019-05-10T17:47:32.363Z,18.30
2019-05-10T17:50:21.104Z,18.10
2019-05-10T17:53:10.785Z,17.80
2019-05-10T17:56:02.777Z,17.60
2019-05-10T17:58:52.064Z,17.30
2019-05-10T18:01:42.535Z,17.20
2019-05-10T18:04:32.437Z,17.10
2019-05-10T18:07:22.076Z,17.00
2019-05-10T18:10:12.329Z,16.90
2019-05-10T18:13:03.444Z,16.80
2019-05-10T18:15:53.254Z,16.70
2019-05-10T18:18:47.046Z,16.70
2019-05-10T18:21:34.463Z,16.60
2019-05-10T18:24:24.190Z,16.40
2019-05-10T18:27:13.729Z,16.30
2019-05-10T18:30:03.369Z,16.10
2019-05-10T18:32:52.813Z,15.90
2019-05-10T18:35:47.349Z,15.70
2019-05-10T18:38:37.095Z,15.60
2019-05-10T18:41:27.423Z,15.40
2019-05-10T18:44:17.611Z,15.30
2019-05-10T18:47:07.939Z,15.20
2019-05-10T18:49:57.369Z,15.00
2019-05-10T18:52:47.107Z,14.80
2019-05-10T18:55:36.766Z,14.70
2019-05-10T18:58:29.443Z,14.60
2019-05-10T19:01:17.379Z,14.40
2019-05-10T19:04:14.037Z,14.30
2019-05-10T19:07:09.430Z,14.20
2019-05-10T19:09:51.310Z,14.00
2019-05-10T19:12:41.587Z,13.90
2019-05-10T19:15:31.585Z,13.70
2019-05-10T19:18:23.144Z,13.60
2019-05-10T19:21:12.253Z,13.50
2019-05-10T19:24:02.949Z,13.30
2019-05-10T19:26:52.689Z,13.20
2019-05-10T19:29:45.898Z,13.10
2019-05-10T19:32:34.304Z,12.90
2019-05-10T19:35:24.112Z,12.80
2019-05-10T19:38:13.455Z,12.70
2019-05-10T19:41:03.176Z,12.60
2019-05-10T19:43:56.322Z,12.50
2019-05-10T19:46:44.380Z,12.40
2019-05-10T19:49:34.009Z,12.30
2019-05-10T19:52:26.023Z,12.10
2019-05-10T19:55:19.370Z,12.10
2019-05-10T19:58:07.190Z,12.00
2019-05-10T20:00:57.449Z,11.90
2019-05-10T20:03:47.604Z,11.90
2019-05-10T20:06:37.279Z,11.80
2019-05-10T20:09:27.601Z,11.80
2019-05-10T20:12:17.344Z,11.80
2019-05-10T20:15:07.095Z,11.80
2019-05-10T20:17:56.273Z,11.70
2019-05-10T20:20:45.973Z,11.70
2019-05-10T20:23:35.664Z,11.60
2019-05-10T20:26:25.439Z,11.60
2019-05-10T20:29:15.079Z,11.50
2019-05-10T20:32:04.810Z,11.50
2019-05-10T20:34:55.501Z,11.50
2019-05-10T20:38:00.161Z,11.40
2019-05-10T20:40:37.322Z,11.40
2019-05-10T20:43:27.382Z,11.40
2019-05-10T20:46:16.784Z,11.40
2019-05-10T20:49:06.314Z,11.30
2019-05-10T20:51:56.291Z,11.20
2019-05-10T20:54:46.021Z,11.20
2019-05-10T20:57:35.710Z,11.10
2019-05-10T21:00:25.603Z,11.10
2019-05-10T21:03:16.952Z,11.00
2019-05-10T21:06:06.784Z,11.00
2019-05-10T21:08:56.390Z,10.90
2019-05-10T21:11:46.204Z,10.90
2019-05-10T21:14:36.241Z,10.80
2019-05-10T21:17:26.004Z,10.80
2019-05-10T21:20:15.533Z,10.70
2019-05-10T21:23:05.154Z,10.70
2019-05-10T21:25:54.600Z,10.60
2019-05-10T21:28:44.251Z,10.60
2019-05-10T21:31:33.816Z,10.50
2019-05-10T21:34:24.670Z,10.50
2019-05-10T21:37:14.252Z,10.40
2019-05-10T21:40:16.075Z,10.30
2019-05-10T21:43:06.296Z,10.20
2019-05-10T21:45:55.899Z,10.20
2019-05-10T21:48:45.833Z,10.10
2019-05-10T21:51:35.428Z,10.10
2019-05-10T21:54:25.345Z,10.00
2019-05-10T21:57:15.329Z,10.00
2019-05-10T22:00:06.268Z,9.90
2019-05-10T22:02:57.319Z,9.80
2019-05-10T22:05:46.839Z,9.80
2019-05-10T22:08:48.893Z,9.70
2019-05-10T22:11:27.849Z,9.70
2019-05-10T22:14:18.252Z,9.60
2019-05-10T22:17:08.229Z,9.50
2019-05-10T22:19:58.145Z,9.50
2019-05-10T22:22:50.084Z,9.40
2019-05-10T22:25:40.569Z,9.40
2019-05-10T22:28:30.589Z,9.30
2019-05-10T22:31:21.104Z,9.20
2019-05-10T22:34:10.871Z,9.20
2019-05-10T22:37:00.864Z,9.10
2019-05-10T22:39:51.750Z,9.10
2019-05-10T22:42:42.109Z,9.00
2019-05-10T22:45:31.993Z,9.00
2019-05-10T22:48:22.010Z,8.90
2019-05-10T22:51:12.161Z,8.90
2019-05-10T22:54:02.311Z,8.80
2019-05-10T22:56:52.220Z,8.80
2019-05-10T22:59:41.846Z,8.70
2019-05-10T23:02:31.665Z,8.70
2019-05-10T23:05:21.666Z,8.60
2019-05-10T23:08:11.539Z,8.60
2019-05-10T23:11:01.620Z,8.50
2019-05-10T23:13:51.199Z,8.50
2019-05-10T23:16:41.119Z,8.50
2019-05-10T23:19:31.044Z,8.40
2019-05-10T23:22:20.578Z,8.40
2019-05-10T23:25:10.888Z,8.40
2019-05-10T23:28:01.338Z,8.40
2019-05-10T23:30:51.157Z,8.40
2019-05-10T23:33:41.415Z,8.30
2019-05-10T23:36:31.199Z,8.30
2019-05-10T23:39:20.760Z,8.30
2019-05-10T23:42:11.454Z,8.20
2019-05-10T23:45:01.843Z,8.20
2019-05-10T23:47:51.513Z,8.20
2019-05-10T23:50:41.799Z,8.10
2019-05-10T23:53:31.269Z,8.10
2019-05-10T23:56:21.606Z,8.10
2019-05-10T23:59:11.244Z,8.10
